createdAt,value
2023-03-18T00:01:07.819Z,10.70
2023-03-18T00:03:37.813Z,10.60
2023-03-18T00:06:08.252Z,10.60
2023-03-18T00:08:37.449Z,10.60
2023-03-18T00:11:06.012Z,10.60
2023-03-18T00:13:34.950Z,10.70
2023-03-18T00:16:03.377Z,10.60
2023-03-18T00:18:34.554Z,10.40
2023-03-18T00:21:03.995Z,10.40
2023-03-18T00:23:33.238Z,10.40
2023-03-18T00:26:02.599Z,10.40
2023-03-18T00:28:31.746Z,10.50
2023-03-18T00:31:04.602Z,10.50
2023-03-18T00:33:34.058Z,10.50
2023-03-18T00:36:02.093Z,10.30
2023-03-18T00:38:30.731Z,10.30
2023-03-18T00:41:16.185Z,10.30
2023-03-18T00:43:54.970Z,10.30
2023-03-18T00:46:25.042Z,10.30
2023-03-18T00:48:55.746Z,10.30
2023-03-18T00:51:26.812Z,10.30
2023-03-18T00:53:56.694Z,10.20
2023-03-18T00:56:27.579Z,10.00
2023-03-18T00:58:57.441Z,10.00
2023-03-18T01:01:26.159Z,10.00
2023-03-18T01:03:56.109Z,10.00
2023-03-18T01:06:25.839Z,10.10
2023-03-18T01:08:53.999Z,10.10
2023-03-18T01:11:23.062Z,10.10
2023-03-18T01:13:51.335Z,10.00
2023-03-18T01:16:19.766Z,10.10
2023-03-18T01:18:47.675Z,10.10
2023-03-18T01:21:18.251Z,10.00
2023-03-18T01:23:54.524Z,10.00
2023-03-18T01:26:23.322Z,9.90
2023-03-18T01:28:51.215Z,9.90
2023-03-18T01:31:19.794Z,9.90
2023-03-18T01:33:48.931Z,9.90
2023-03-18T01:36:18.919Z,9.90
2023-03-18T01:38:59.572Z,9.90
2023-03-18T01:41:27.911Z,9.90
2023-03-18T01:43:55.721Z,9.80
2023-03-18T01:46:35.075Z,9.80
2023-03-18T01:49:07.931Z,9.70
2023-03-18T01:51:37.890Z,9.70
2023-03-18T01:54:07.801Z,9.70
2023-03-18T01:56:37.456Z,9.80
2023-03-18T01:59:06.958Z,9.80
2023-03-18T02:01:40.988Z,9.80
2023-03-18T02:04:10.819Z,9.80
2023-03-18T02:06:43.870Z,9.90
2023-03-18T02:09:13.319Z,9.80
2023-03-18T02:11:46.075Z,9.80
2023-03-18T02:14:18.011Z,9.80
2023-03-18T02:16:48.778Z,9.80
2023-03-18T02:19:29.948Z,9.80
2023-03-18T02:22:22.745Z,9.70
2023-03-18T02:25:04.829Z,9.80
2023-03-18T02:27:36.309Z,9.70
2023-03-18T02:30:10.511Z,9.60
2023-03-18T02:32:42.281Z,9.60
2023-03-18T02:35:11.927Z,9.60
2023-03-18T02:37:40.700Z,9.60
2023-03-18T02:40:14.694Z,9.50
2023-03-18T02:42:46.917Z,9.50
2023-03-18T02:45:32.357Z,9.50
2023-03-18T02:48:18.085Z,9.40
2023-03-18T02:50:47.652Z,9.30
2023-03-18T02:53:15.597Z,9.40
2023-03-18T02:55:43.712Z,9.40
2023-03-18T02:58:12.908Z,9.40
2023-03-18T03:00:41.868Z,9.40
2023-03-18T03:03:09.934Z,9.30
2023-03-18T03:05:38.621Z,9.30
2023-03-18T03:08:06.555Z,9.20
2023-03-18T03:10:38.133Z,9.10
2023-03-18T03:13:07.812Z,9.10
2023-03-18T03:15:38.535Z,9.10
2023-03-18T03:18:07.244Z,9.10
2023-03-18T03:20:37.614Z,9.10
2023-03-18T03:23:05.817Z,9.00
2023-03-18T03:25:34.517Z,9.00
2023-03-18T03:28:04.245Z,8.90
2023-03-18T03:30:32.302Z,8.90
2023-03-18T03:33:02.893Z,8.80
2023-03-18T03:35:31.177Z,8.60
2023-03-18T03:38:04.487Z,8.60
2023-03-18T03:40:36.510Z,8.60
2023-03-18T03:43:04.572Z,8.60
2023-03-18T03:45:33.706Z,8.70
2023-03-18T03:48:02.912Z,8.70
2023-03-18T03:50:30.876Z,8.70
2023-03-18T03:52:58.835Z,8.70
2023-03-18T03:55:28.655Z,8.70
2023-03-18T03:57:57.117Z,8.70
2023-03-18T04:00:26.960Z,8.60
2023-03-18T04:02:54.979Z,8.60
2023-03-18T04:05:25.890Z,8.60
2023-03-18T04:07:55.432Z,8.60
2023-03-18T04:10:36.652Z,8.60
2023-03-18T04:13:06.147Z,8.50
2023-03-18T04:15:34.518Z,8.50
2023-03-18T04:18:10.009Z,8.50
2023-03-18T04:20:40.707Z,8.60
2023-03-18T04:23:18.082Z,8.50
2023-03-18T04:25:46.359Z,8.50
2023-03-18T04:28:16.632Z,8.50
2023-03-18T04:30:44.763Z,8.50
2023-03-18T04:33:16.695Z,8.50
2023-03-18T04:35:46.276Z,8.60
2023-03-18T04:38:15.698Z,8.60
2023-03-18T04:40:45.785Z,8.50
2023-03-18T04:43:13.865Z,8.50
2023-03-18T04:45:42.126Z,8.30
2023-03-18T04:48:10.638Z,8.20
2023-03-18T04:50:41.729Z,8.20
2023-03-18T04:53:16.960Z,8.10
2023-03-18T04:55:45.896Z,8.20
2023-03-18T04:58:15.712Z,8.30
2023-03-18T05:00:51.926Z,8.30
2023-03-18T05:03:26.190Z,8.30
2023-03-18T05:05:54.674Z,8.30
2023-03-18T05:08:30.825Z,8.30
2023-03-18T05:11:01.502Z,8.30
2023-03-18T05:13:30.220Z,8.30
2023-03-18T05:15:59.404Z,8.30
2023-03-18T05:18:27.564Z,8.40
2023-03-18T05:20:59.156Z,8.40
2023-03-18T05:23:27.375Z,8.40
2023-03-18T05:25:58.514Z,8.30
2023-03-18T05:28:28.738Z,8.30
2023-03-18T05:31:12.521Z,8.30
2023-03-18T05:33:42.803Z,8.30
2023-03-18T05:36:13.632Z,8.40
2023-03-18T05:38:56.334Z,8.50
2023-03-18T05:41:26.889Z,8.40
2023-03-18T05:43:55.236Z,8.30
2023-03-18T05:46:23.661Z,8.40
2023-03-18T05:49:13.929Z,8.30
2023-03-18T05:51:51.728Z,8.30
2023-03-18T05:54:32.683Z,8.20
2023-03-18T05:57:02.865Z,8.40
2023-03-18T05:59:31.788Z,8.40
2023-03-18T06:02:03.505Z,8.40
2023-03-18T06:04:31.591Z,8.30
2023-03-18T06:06:59.668Z,8.30
2023-03-18T06:09:27.755Z,8.40
2023-03-18T06:11:55.893Z,8.50
2023-03-18T06:14:29.552Z,8.50
2023-03-18T06:17:01.441Z,8.50
2023-03-18T06:19:30.971Z,8.50
2023-03-18T06:21:59.242Z,8.60
2023-03-18T06:24:27.466Z,8.60
2023-03-18T06:26:57.631Z,8.70
2023-03-18T06:29:27.461Z,8.70
2023-03-18T06:31:59.746Z,8.80
2023-03-18T06:34:28.321Z,8.90
2023-03-18T06:36:57.220Z,9.00
2023-03-18T06:39:26.462Z,9.00
2023-03-18T06:41:55.253Z,9.00
2023-03-18T06:44:50.804Z,9.00
2023-03-18T06:47:28.040Z,9.00
2023-03-18T06:49:58.116Z,9.10
2023-03-18T06:52:31.546Z,9.20
2023-03-18T06:55:06.852Z,9.30
2023-03-18T06:57:39.409Z,9.30
2023-03-18T07:00:12.163Z,9.20
2023-03-18T07:02:42.193Z,9.30
2023-03-18T07:05:13.342Z,9.40
2023-03-18T07:07:42.742Z,9.40
2023-03-18T07:10:16.874Z,9.40
2023-03-18T07:12:45.122Z,9.50
2023-03-18T07:15:15.021Z,9.50
2023-03-18T07:17:43.433Z,9.60
2023-03-18T07:20:13.791Z,9.70
2023-03-18T07:22:42.850Z,9.80
2023-03-18T07:25:11.545Z,9.90
2023-03-18T07:27:40.137Z,10.00
2023-03-18T07:30:12.171Z,10.00
2023-03-18T07:32:41.692Z,10.10
2023-03-18T07:35:11.912Z,10.10
2023-03-18T07:37:43.769Z,10.20
2023-03-18T07:40:13.258Z,10.30
2023-03-18T07:42:41.115Z,10.30
2023-03-18T07:45:10.536Z,10.40
2023-03-18T07:47:38.741Z,10.40
2023-03-18T07:50:09.771Z,10.60
2023-03-18T07:52:37.782Z,10.70
2023-03-18T07:55:06.362Z,10.70
2023-03-18T07:57:34.200Z,10.90
2023-03-18T08:00:02.121Z,11.00
2023-03-18T08:02:40.714Z,11.00
2023-03-18T08:05:11.663Z,11.10
2023-03-18T08:07:39.810Z,11.20
2023-03-18T08:10:09.438Z,11.30
2023-03-18T08:12:51.629Z,11.40
2023-03-18T08:15:20.930Z,11.60
2023-03-18T08:17:48.999Z,11.70
2023-03-18T08:20:20.468Z,11.80
2023-03-18T08:22:48.803Z,11.90
2023-03-18T08:25:17.421Z,12.00
2023-03-18T08:27:45.415Z,12.10
2023-03-18T08:30:15.313Z,12.20
2023-03-18T08:32:43.748Z,12.30
2023-03-18T08:35:12.328Z,12.40
2023-03-18T08:37:41.918Z,12.50
2023-03-18T08:40:12.041Z,12.70
2023-03-18T08:42:40.112Z,12.70
2023-03-18T08:45:09.849Z,12.80
2023-03-18T08:47:37.938Z,12.90
2023-03-18T08:50:06.620Z,13.00
2023-03-18T08:52:34.842Z,13.10
2023-03-18T08:55:04.651Z,13.20
2023-03-18T08:57:33.045Z,13.30
2023-03-18T09:00:01.075Z,13.30
2023-03-18T09:02:29.093Z,13.30
2023-03-18T09:04:57.414Z,13.30
2023-03-18T09:07:25.480Z,13.40
2023-03-18T09:09:54.473Z,13.50
2023-03-18T09:12:24.891Z,13.50
2023-03-18T09:14:52.997Z,13.50
2023-03-18T09:17:22.343Z,13.60
2023-03-18T09:19:53.291Z,13.60
2023-03-18T09:22:21.993Z,13.70
2023-03-18T09:24:50.020Z,13.70
2023-03-18T09:27:17.900Z,13.80
2023-03-18T09:29:47.531Z,13.90
2023-03-18T09:32:16.562Z,14.00
2023-03-18T09:34:45.255Z,14.20
2023-03-18T09:37:16.673Z,14.30
2023-03-18T09:39:45.001Z,14.20
2023-03-18T09:42:23.981Z,14.10
2023-03-18T09:44:58.024Z,14.00
2023-03-18T09:47:48.820Z,14.00
2023-03-18T09:50:29.353Z,14.10
2023-03-18T09:53:13.728Z,14.20
2023-03-18T09:55:46.894Z,14.30
2023-03-18T09:58:24.812Z,14.30
2023-03-18T10:00:59.534Z,14.40
2023-03-18T10:03:36.420Z,14.40
2023-03-18T10:06:08.287Z,14.50
2023-03-18T10:08:53.129Z,14.60
2023-03-18T10:11:29.563Z,14.70
2023-03-18T10:14:24.675Z,14.70
2023-03-18T10:17:06.212Z,14.70
2023-03-18T10:19:37.493Z,14.70
2023-03-18T10:22:30.833Z,15.00
2023-03-18T10:25:20.045Z,15.40
2023-03-18T10:28:00.045Z,15.70
2023-03-18T10:30:49.402Z,15.50
2023-03-18T10:33:36.919Z,15.40
2023-03-18T10:36:25.637Z,15.70
2023-03-18T10:38:56.470Z,15.80
2023-03-18T10:41:30.257Z,15.60
2023-03-18T10:43:59.148Z,15.50
2023-03-18T10:46:27.583Z,15.60
2023-03-18T10:49:00.532Z,15.60
2023-03-18T10:51:35.111Z,15.60
2023-03-18T10:54:09.874Z,15.50
2023-03-18T10:56:38.193Z,15.40
2023-03-18T10:59:12.618Z,15.70
2023-03-18T11:01:41.978Z,16.10
2023-03-18T11:04:15.340Z,16.20
2023-03-18T11:06:47.968Z,16.30
2023-03-18T11:09:19.072Z,16.20
2023-03-18T11:11:49.011Z,16.10
2023-03-18T11:14:21.489Z,16.00
2023-03-18T11:16:56.785Z,16.20
2023-03-18T11:19:34.861Z,16.20
2023-03-18T11:22:22.481Z,16.00
2023-03-18T11:25:06.310Z,15.90
2023-03-18T11:27:40.671Z,15.90
2023-03-18T11:30:24.328Z,16.10
2023-03-18T11:33:03.563Z,16.20
2023-03-18T11:35:40.094Z,16.40
2023-03-18T11:38:14.588Z,16.70
2023-03-18T11:40:42.806Z,17.00
2023-03-18T11:43:19.116Z,17.10
2023-03-18T11:45:57.746Z,17.40
2023-03-18T11:48:37.276Z,17.50
2023-03-18T11:51:36.934Z,17.70
2023-03-18T11:54:23.346Z,17.90
2023-03-18T11:56:57.636Z,18.20
2023-03-18T11:59:36.819Z,18.40
2023-03-18T12:02:28.005Z,18.40
2023-03-18T12:05:21.540Z,18.60
2023-03-18T12:08:03.605Z,18.80
2023-03-18T12:10:36.576Z,18.90
2023-03-18T12:13:29.978Z,18.70
2023-03-18T12:16:08.502Z,18.70
2023-03-18T12:19:03.320Z,18.80
2023-03-18T12:21:51.808Z,18.90
2023-03-18T12:24:45.717Z,18.90
2023-03-18T12:27:23.772Z,19.00
2023-03-18T12:30:25.409Z,19.10
2023-03-18T12:33:04.528Z,18.80
2023-03-18T12:35:53.653Z,18.70
2023-03-18T12:38:55.369Z,18.80
2023-03-18T12:41:37.330Z,18.70
2023-03-18T12:44:22.109Z,18.40
2023-03-18T12:47:00.945Z,18.30
2023-03-18T12:49:35.375Z,18.80
2023-03-18T12:52:08.200Z,18.80
2023-03-18T12:54:42.370Z,18.50
2023-03-18T12:57:21.092Z,18.90
2023-03-18T12:59:53.469Z,19.00
2023-03-18T13:02:44.281Z,19.00
2023-03-18T13:05:25.441Z,19.10
2023-03-18T13:08:12.257Z,19.30
2023-03-18T13:10:42.135Z,19.50
2023-03-18T13:13:14.656Z,19.20
2023-03-18T13:15:45.174Z,19.00
2023-03-18T13:18:19.423Z,18.80
2023-03-18T13:20:48.320Z,18.70
2023-03-18T13:23:38.974Z,19.10
2023-03-18T13:26:15.483Z,19.40
2023-03-18T13:28:55.774Z,19.60
2023-03-18T13:31:34.937Z,19.60
2023-03-18T13:34:45.641Z,19.80
2023-03-18T13:37:50.530Z,19.90
2023-03-18T13:40:42.974Z,20.00
2023-03-18T13:43:14.376Z,20.00
2023-03-18T13:45:47.922Z,20.00
2023-03-18T13:48:18.721Z,20.00
2023-03-18T13:50:48.909Z,20.00
2023-03-18T13:53:25.346Z,20.10
2023-03-18T13:56:05.557Z,20.30
2023-03-18T13:58:36.533Z,20.30
2023-03-18T14:01:29.553Z,20.20
2023-03-18T14:04:02.329Z,20.20
2023-03-18T14:06:56.185Z,20.10
2023-03-18T14:09:33.575Z,20.10
2023-03-18T14:12:21.153Z,20.20
2023-03-18T14:15:01.764Z,20.20
2023-03-18T14:17:56.991Z,20.30
2023-03-18T14:20:38.632Z,20.60
2023-03-18T14:23:32.126Z,20.80
2023-03-18T14:26:06.110Z,21.20
2023-03-18T14:28:46.252Z,21.20
2023-03-18T14:31:37.371Z,21.40
2023-03-18T14:34:28.252Z,21.50
2023-03-18T14:37:30.816Z,21.90
2023-03-18T14:40:06.596Z,22.00
2023-03-18T14:42:57.008Z,22.20
2023-03-18T14:45:27.977Z,22.60
2023-03-18T14:47:58.033Z,22.90
2023-03-18T14:50:40.615Z,23.20
2023-03-18T14:53:17.787Z,23.20
2023-03-18T14:55:46.196Z,23.20
2023-03-18T14:58:19.811Z,23.60
2023-03-18T15:00:51.201Z,24.00
2023-03-18T15:03:23.116Z,24.10
2023-03-18T15:05:56.875Z,24.40
2023-03-18T15:08:44.593Z,24.50
2023-03-18T15:11:16.832Z,25.00
2023-03-18T15:13:45.668Z,24.90
2023-03-18T15:16:18.440Z,25.00
2023-03-18T15:18:53.517Z,25.50
2023-03-18T15:21:27.604Z,25.70
2023-03-18T15:24:00.787Z,25.90
2023-03-18T15:26:31.384Z,25.70
2023-03-18T15:29:01.536Z,26.00
2023-03-18T15:31:31.850Z,26.00
2023-03-18T15:34:08.159Z,25.70
2023-03-18T15:36:45.404Z,25.80
2023-03-18T15:39:21.955Z,26.40
2023-03-18T15:41:54.848Z,26.20
2023-03-18T15:44:29.108Z,25.10
2023-03-18T15:47:06.947Z,23.90
2023-03-18T15:49:50.341Z,23.00
2023-03-18T15:52:25.454Z,22.30
2023-03-18T15:54:55.281Z,22.20
2023-03-18T15:57:29.806Z,21.90
2023-03-18T15:59:58.240Z,21.60
2023-03-18T16:02:27.038Z,21.30
2023-03-18T16:05:05.827Z,21.10
2023-03-18T16:07:35.838Z,20.90
2023-03-18T16:10:04.628Z,20.60
2023-03-18T16:12:34.054Z,20.30
2023-03-18T16:15:05.496Z,20.10
2023-03-18T16:17:33.816Z,19.80
2023-03-18T16:20:04.488Z,19.50
2023-03-18T16:22:34.513Z,19.10
2023-03-18T16:25:04.340Z,18.80
2023-03-18T16:27:37.888Z,18.60
2023-03-18T16:30:07.832Z,18.30
2023-03-18T16:32:36.395Z,18.20
2023-03-18T16:35:04.596Z,18.00
2023-03-18T16:37:32.960Z,17.90
2023-03-18T16:40:03.749Z,17.80
2023-03-18T16:42:32.065Z,17.60
2023-03-18T16:45:00.324Z,17.40
2023-03-18T16:47:28.760Z,17.30
2023-03-18T16:49:58.164Z,17.20
2023-03-18T16:52:26.366Z,17.20
2023-03-18T16:54:54.457Z,17.10
2023-03-18T16:57:24.661Z,17.00
2023-03-18T16:59:57.755Z,16.90
2023-03-18T17:02:32.859Z,16.70
2023-03-18T17:05:02.924Z,16.60
2023-03-18T17:07:31.477Z,16.50
2023-03-18T17:09:59.706Z,16.30
2023-03-18T17:12:29.697Z,16.20
2023-03-18T17:14:59.207Z,16.10
2023-03-18T17:17:30.346Z,15.90
2023-03-18T17:20:00.091Z,15.80
2023-03-18T17:22:29.804Z,15.70
2023-03-18T17:25:00.445Z,15.50
2023-03-18T17:27:32.520Z,15.50
2023-03-18T17:30:01.293Z,15.40
2023-03-18T17:32:29.503Z,15.30
2023-03-18T17:34:58.019Z,15.20
2023-03-18T17:37:26.179Z,15.20
2023-03-18T17:39:54.857Z,15.00
2023-03-18T17:42:33.030Z,14.90
2023-03-18T17:45:06.127Z,14.90
2023-03-18T17:47:34.908Z,14.80
2023-03-18T17:50:05.189Z,14.80
2023-03-18T17:52:34.277Z,14.70
2023-03-18T17:55:02.473Z,14.70
2023-03-18T17:57:32.500Z,14.70
2023-03-18T18:00:00.941Z,14.70
2023-03-18T18:02:36.529Z,14.70
2023-03-18T18:05:05.232Z,14.60
2023-03-18T18:07:33.480Z,14.50
2023-03-18T18:10:01.719Z,14.50
2023-03-18T18:12:30.218Z,14.50
2023-03-18T18:15:00.175Z,14.50
2023-03-18T18:17:28.677Z,14.50
2023-03-18T18:19:57.784Z,14.50
2023-03-18T18:22:26.975Z,14.50
2023-03-18T18:24:57.331Z,14.50
2023-03-18T18:27:26.246Z,14.40
2023-03-18T18:29:54.830Z,14.40
2023-03-18T18:32:26.747Z,14.50
2023-03-18T18:34:55.129Z,14.50
2023-03-18T18:37:23.371Z,14.50
2023-03-18T18:39:51.758Z,14.40
2023-03-18T18:42:19.881Z,14.40
2023-03-18T18:44:48.484Z,14.40
2023-03-18T18:47:20.247Z,14.30
2023-03-18T18:49:51.158Z,14.30
2023-03-18T18:52:19.529Z,14.30
2023-03-18T18:54:47.680Z,14.30
2023-03-18T18:57:25.412Z,14.30
2023-03-18T18:59:53.814Z,14.30
2023-03-18T19:02:29.705Z,14.40
2023-03-18T19:05:00.469Z,14.40
2023-03-18T19:07:29.676Z,14.30
2023-03-18T19:09:58.732Z,14.30
2023-03-18T19:12:28.009Z,14.30
2023-03-18T19:14:56.339Z,14.30
2023-03-18T19:17:25.926Z,14.30
2023-03-18T19:19:55.029Z,14.30
2023-03-18T19:22:25.779Z,14.30
2023-03-18T19:24:54.154Z,14.30
2023-03-18T19:27:25.278Z,14.30
2023-03-18T19:29:54.800Z,14.30
2023-03-18T19:32:24.113Z,14.30
2023-03-18T19:34:53.684Z,14.30
2023-03-18T19:37:28.839Z,14.50
2023-03-18T19:39:57.651Z,14.40
2023-03-18T19:42:26.593Z,14.50
2023-03-18T19:44:55.052Z,14.50
2023-03-18T19:47:25.720Z,14.50
2023-03-18T19:49:54.749Z,14.50
2023-03-18T19:52:25.049Z,14.50
2023-03-18T19:54:55.774Z,14.60
2023-03-18T19:57:27.791Z,14.60
2023-03-18T19:59:57.699Z,14.50
2023-03-18T20:02:28.479Z,14.30
2023-03-18T20:04:59.324Z,14.30
2023-03-18T20:07:29.671Z,14.30
2023-03-18T20:09:59.608Z,14.20
2023-03-18T20:12:32.857Z,14.00
2023-03-18T20:15:01.265Z,13.90
2023-03-18T20:17:37.618Z,13.90
2023-03-18T20:20:12.351Z,14.00
2023-03-18T20:22:43.811Z,14.00
2023-03-18T20:25:20.574Z,14.00
2023-03-18T20:27:48.554Z,14.00
2023-03-18T20:30:26.549Z,14.00
2023-03-18T20:32:55.086Z,14.00
2023-03-18T20:35:27.622Z,13.90
2023-03-18T20:37:56.622Z,13.90
2023-03-18T20:40:28.758Z,13.90
2023-03-18T20:42:57.475Z,14.10
2023-03-18T20:45:27.246Z,14.10
2023-03-18T20:47:57.023Z,14.10
2023-03-18T20:50:31.708Z,14.10
2023-03-18T20:53:00.156Z,14.20
2023-03-18T20:55:31.596Z,14.20
2023-03-18T20:58:01.324Z,14.20
2023-03-18T21:00:32.335Z,14.20
2023-03-18T21:03:02.651Z,14.20
2023-03-18T21:05:31.240Z,14.20
2023-03-18T21:07:59.537Z,14.20
2023-03-18T21:10:29.425Z,14.20
2023-03-18T21:12:57.664Z,14.10
2023-03-18T21:15:28.611Z,14.00
2023-03-18T21:17:57.136Z,13.90
2023-03-18T21:20:29.358Z,13.80
2023-03-18T21:22:57.950Z,13.60
2023-03-18T21:25:29.104Z,13.60
2023-03-18T21:27:58.195Z,13.70
2023-03-18T21:30:26.440Z,13.70
2023-03-18T21:32:54.770Z,13.70
2023-03-18T21:35:24.876Z,13.70
2023-03-18T21:37:53.880Z,13.60
2023-03-18T21:40:23.439Z,13.60
2023-03-18T21:42:53.542Z,13.70
2023-03-18T21:45:24.496Z,13.70
2023-03-18T21:47:53.209Z,13.60
2023-03-18T21:50:23.007Z,13.60
2023-03-18T21:52:52.454Z,13.60
2023-03-18T21:55:21.149Z,13.60
2023-03-18T21:57:49.702Z,13.50
2023-03-18T22:00:21.433Z,13.30
2023-03-18T22:02:50.073Z,13.30
2023-03-18T22:05:20.823Z,13.30
2023-03-18T22:07:50.727Z,13.20
2023-03-18T22:10:20.817Z,13.20
2023-03-18T22:12:49.462Z,13.20
2023-03-18T22:15:35.603Z,13.00
2023-03-18T22:18:04.198Z,13.00
2023-03-18T22:20:33.129Z,13.00
2023-03-18T22:23:01.658Z,12.90
2023-03-18T22:25:32.271Z,12.80
2023-03-18T22:28:01.101Z,12.80
2023-03-18T22:30:32.918Z,12.80
2023-03-18T22:33:04.237Z,12.80
2023-03-18T22:35:32.733Z,12.80
2023-03-18T22:38:00.995Z,12.80
2023-03-18T22:40:31.551Z,12.80
2023-03-18T22:43:01.790Z,12.80
2023-03-18T22:45:33.069Z,12.70
2023-03-18T22:48:03.619Z,12.80
2023-03-18T22:50:34.971Z,12.80
2023-03-18T22:53:06.246Z,12.80
2023-03-18T22:55:37.586Z,12.70
2023-03-18T22:58:06.403Z,12.70
2023-03-18T23:00:38.475Z,12.70
2023-03-18T23:03:12.438Z,12.70
2023-03-18T23:05:40.594Z,12.70
2023-03-18T23:08:08.549Z,12.60
2023-03-18T23:10:36.944Z,12.60
2023-03-18T23:13:14.538Z,12.70
2023-03-18T23:15:44.963Z,12.70
2023-03-18T23:18:15.732Z,12.70
2023-03-18T23:20:45.191Z,12.70
2023-03-18T23:23:14.263Z,12.70
2023-03-18T23:25:43.441Z,12.70
2023-03-18T23:28:11.542Z,12.70
2023-03-18T23:30:42.099Z,12.60
2023-03-18T23:33:11.988Z,12.50
2023-03-18T23:35:40.339Z,12.50
2023-03-18T23:38:08.724Z,12.60
2023-03-18T23:40:36.872Z,12.50
2023-03-18T23:43:05.153Z,12.50
2023-03-18T23:45:33.455Z,12.50
2023-03-18T23:48:01.844Z,12.50
2023-03-18T23:50:31.547Z,12.50
2023-03-18T23:53:00.718Z,12.40
2023-03-18T23:55:34.616Z,12.40
2023-03-18T23:58:03.359Z,12.40
